createdAt,value
2022-10-13T00:00:55.814Z,9.23
2022-10-13T00:03:22.982Z,9.27
2022-10-13T00:05:50.762Z,9.73
2022-10-13T00:08:21.071Z,9.70
2022-10-13T00:10:49.693Z,9.80
2022-10-13T00:13:20.550Z,10.13
2022-10-13T00:15:48.529Z,9.13
2022-10-13T00:18:15.992Z,10.00
2022-10-13T00:20:45.044Z,10.73
2022-10-13T00:23:12.122Z,10.97
2022-10-13T00:25:43.728Z,9.20
2022-10-13T00:28:10.854Z,9.30
2022-10-13T00:30:38.508Z,9.03
2022-10-13T00:33:05.688Z,9.90
2022-10-13T00:35:33.047Z,9.57
2022-10-13T00:37:59.696Z,9.83
2022-10-13T00:40:30.694Z,10.93
2022-10-13T00:42:57.271Z,10.07
2022-10-13T00:45:26.970Z,10.27
2022-10-13T00:48:00.743Z,10.80
2022-10-13T00:50:38.349Z,11.17
2022-10-13T00:53:05.867Z,11.27
2022-10-13T00:55:35.455Z,10.30
2022-10-13T00:58:05.695Z,11.80
2022-10-13T01:00:34.505Z,11.53
2022-10-13T01:03:03.430Z,12.27
2022-10-13T01:05:30.954Z,12.07
2022-10-13T01:07:59.496Z,11.00
2022-10-13T01:10:47.739Z,10.73
2022-10-13T01:13:34.451Z,9.97
2022-10-13T01:16:16.169Z,12.93
2022-10-13T01:19:23.230Z,13.03
2022-10-13T01:22:10.982Z,15.40
2022-10-13T01:24:44.872Z,13.90
2022-10-13T01:27:43.709Z,13.10
2022-10-13T01:30:16.400Z,12.27
2022-10-13T01:32:55.139Z,11.57
2022-10-13T01:35:47.589Z,11.47
2022-10-13T01:38:32.537Z,11.73
2022-10-13T01:41:10.621Z,13.10
2022-10-13T01:43:49.606Z,15.87
2022-10-13T01:46:23.553Z,17.13
2022-10-13T01:48:53.604Z,16.57
2022-10-13T01:51:23.619Z,16.53
2022-10-13T01:53:52.800Z,18.43
2022-10-13T01:56:19.411Z,18.83
2022-10-13T01:58:50.011Z,19.90
2022-10-13T02:01:39.534Z,19.30
2022-10-13T02:04:30.168Z,20.83
2022-10-13T02:07:15.512Z,20.77
2022-10-13T02:09:50.525Z,20.73
2022-10-13T02:12:39.150Z,21.17
2022-10-13T02:15:09.714Z,20.13
2022-10-13T02:17:36.573Z,20.07
2022-10-13T02:20:05.990Z,21.03
2022-10-13T02:22:42.240Z,21.27
2022-10-13T02:25:09.568Z,21.93
2022-10-13T02:27:36.137Z,21.53
2022-10-13T02:30:02.755Z,23.40
2022-10-13T02:32:30.674Z,22.37
2022-10-13T02:34:57.282Z,21.07
2022-10-13T02:37:25.658Z,20.20
2022-10-13T02:39:52.550Z,20.13
2022-10-13T02:42:19.931Z,20.10
2022-10-13T02:44:46.829Z,20.80
2022-10-13T02:47:13.458Z,19.60
2022-10-13T02:49:40.039Z,20.93
2022-10-13T02:52:06.630Z,20.77
2022-10-13T02:54:33.217Z,22.07
2022-10-13T02:56:59.762Z,20.87
2022-10-13T02:59:26.302Z,19.93
2022-10-13T03:01:52.874Z,19.40
2022-10-13T03:04:19.463Z,18.40
2022-10-13T03:06:46.042Z,19.07
2022-10-13T03:09:13.502Z,17.93
2022-10-13T03:11:41.531Z,17.53
2022-10-13T03:14:08.282Z,16.67
2022-10-13T03:16:34.914Z,17.37
2022-10-13T03:19:01.488Z,17.23
2022-10-13T03:21:28.178Z,18.70
2022-10-13T03:23:54.809Z,18.43
2022-10-13T03:26:23.060Z,18.40
2022-10-13T03:28:52.815Z,18.67
2022-10-13T03:31:19.452Z,17.23
2022-10-13T03:33:46.682Z,18.50
2022-10-13T03:36:13.672Z,18.13
2022-10-13T03:38:42.408Z,20.07
2022-10-13T03:41:12.166Z,19.27
2022-10-13T03:43:39.477Z,20.27
2022-10-13T03:46:07.325Z,19.00
2022-10-13T03:48:35.992Z,18.90
2022-10-13T03:51:13.410Z,19.70
2022-10-13T03:53:45.752Z,18.13
2022-10-13T03:56:18.749Z,17.43
2022-10-13T03:58:54.464Z,19.60
2022-10-13T04:01:26.518Z,18.70
2022-10-13T04:03:55.665Z,18.30
2022-10-13T04:06:23.254Z,18.03
2022-10-13T04:08:50.281Z,18.50
2022-10-13T04:11:17.921Z,16.87
2022-10-13T04:13:50.289Z,17.20
2022-10-13T04:16:20.186Z,18.40
2022-10-13T04:18:54.935Z,18.63
2022-10-13T04:21:22.672Z,17.53
2022-10-13T04:23:49.611Z,19.57
2022-10-13T04:26:18.630Z,20.10
2022-10-13T04:28:46.858Z,18.40
2022-10-13T04:31:13.821Z,18.00
2022-10-13T04:33:40.425Z,16.60
2022-10-13T04:36:09.325Z,16.77
2022-10-13T04:38:36.499Z,16.27
2022-10-13T04:41:06.934Z,17.30
2022-10-13T04:43:34.263Z,17.57
2022-10-13T04:46:15.816Z,18.80
2022-10-13T04:48:42.423Z,19.77
2022-10-13T04:51:14.947Z,19.63
2022-10-13T04:53:42.286Z,18.17
2022-10-13T04:56:16.738Z,16.77
2022-10-13T04:58:44.749Z,16.90
2022-10-13T05:01:22.296Z,16.73
2022-10-13T05:03:53.386Z,15.03
2022-10-13T05:06:23.378Z,16.07
2022-10-13T05:08:55.920Z,15.90
2022-10-13T05:11:23.132Z,14.70
2022-10-13T05:13:49.968Z,14.93
2022-10-13T05:16:18.009Z,14.80
2022-10-13T05:18:45.270Z,14.77
2022-10-13T05:21:22.953Z,14.70
2022-10-13T05:23:49.952Z,14.73
2022-10-13T05:26:17.981Z,16.30
2022-10-13T05:28:45.437Z,16.53
2022-10-13T05:31:15.060Z,15.03
2022-10-13T05:33:43.050Z,15.07
2022-10-13T05:36:16.511Z,16.00
2022-10-13T05:38:43.887Z,15.37
2022-10-13T05:41:13.776Z,15.90
2022-10-13T05:43:42.071Z,15.30
2022-10-13T05:46:08.998Z,15.00
2022-10-13T05:48:37.044Z,16.50
2022-10-13T05:51:10.092Z,16.03
2022-10-13T05:53:41.994Z,16.27
2022-10-13T05:56:17.650Z,16.23
2022-10-13T05:58:47.350Z,16.10
2022-10-13T06:01:18.486Z,15.93
2022-10-13T06:03:46.169Z,15.83
2022-10-13T06:06:12.874Z,15.50
2022-10-13T06:08:39.575Z,14.27
2022-10-13T06:11:07.227Z,14.50
2022-10-13T06:13:33.883Z,13.63
2022-10-13T06:16:00.561Z,14.10
2022-10-13T06:18:27.977Z,13.23
2022-10-13T06:20:54.525Z,14.07
2022-10-13T06:23:21.310Z,13.70
2022-10-13T06:25:49.483Z,13.87
2022-10-13T06:28:18.729Z,13.47
2022-10-13T06:30:49.371Z,12.77
2022-10-13T06:33:16.778Z,12.80
2022-10-13T06:35:43.329Z,13.37
2022-10-13T06:38:12.326Z,12.67
2022-10-13T06:40:40.964Z,12.40
2022-10-13T06:43:07.813Z,12.67
2022-10-13T06:45:40.835Z,11.63
2022-10-13T06:48:07.409Z,11.77
2022-10-13T06:50:34.175Z,10.87
2022-10-13T06:53:00.761Z,10.97
2022-10-13T06:55:27.450Z,11.23
2022-10-13T06:57:54.043Z,10.57
2022-10-13T07:00:20.995Z,10.47
2022-10-13T07:02:52.460Z,10.53
2022-10-13T07:05:19.539Z,9.73
2022-10-13T07:07:46.359Z,10.47
2022-10-13T07:10:13.371Z,9.70
2022-10-13T07:12:41.050Z,9.97
2022-10-13T07:15:08.100Z,10.90
2022-10-13T07:17:34.665Z,9.60
2022-10-13T07:20:05.044Z,9.83
2022-10-13T07:22:33.772Z,9.35
2022-10-13T07:25:00.367Z,9.27
2022-10-13T07:27:27.900Z,9.57
2022-10-13T07:29:54.755Z,9.48
2022-10-13T07:32:21.343Z,10.15
2022-10-13T07:34:47.954Z,10.63
2022-10-13T07:37:14.579Z,9.20
2022-10-13T07:39:41.139Z,9.00
2022-10-13T07:42:07.794Z,10.98
2022-10-13T07:44:34.364Z,9.60
2022-10-13T07:47:00.924Z,9.85
2022-10-13T07:49:27.550Z,10.93
2022-10-13T07:51:54.310Z,12.45
2022-10-13T07:54:23.804Z,11.00
2022-10-13T07:56:56.101Z,10.75
2022-10-13T07:59:22.906Z,9.60
2022-10-13T08:01:49.531Z,9.65
2022-10-13T08:04:16.183Z,8.18
2022-10-13T08:06:42.779Z,7.75
2022-10-13T08:09:09.797Z,7.80
2022-10-13T08:11:36.454Z,7.93
2022-10-13T08:14:03.406Z,7.57
2022-10-13T08:16:32.326Z,6.95
2022-10-13T08:18:59.393Z,7.35
2022-10-13T08:21:53.295Z,7.03
2022-10-13T08:24:16.277Z,7.85
2022-10-13T08:26:44.720Z,7.30
2022-10-13T08:29:26.766Z,7.00
2022-10-13T08:31:54.157Z,8.82
2022-10-13T08:34:22.853Z,8.63
2022-10-13T08:36:53.050Z,8.07
2022-10-13T08:39:21.230Z,9.20
2022-10-13T08:41:48.203Z,8.23
2022-10-13T08:45:06.346Z,7.78
2022-10-13T08:47:22.356Z,7.22
2022-10-13T08:49:49.228Z,6.78
2022-10-13T08:52:23.171Z,6.70
2022-10-13T08:54:50.610Z,6.93
2022-10-13T08:57:18.521Z,7.07
2022-10-13T08:59:45.932Z,6.82
2022-10-13T09:02:41.548Z,6.68
2022-10-13T09:05:18.526Z,6.30
2022-10-13T09:07:48.433Z,6.60
2022-10-13T09:10:15.567Z,7.10
2022-10-13T09:12:42.395Z,7.45
2022-10-13T09:15:11.787Z,7.55
2022-10-13T09:17:41.094Z,9.02
2022-10-13T09:20:27.614Z,8.57
2022-10-13T09:23:05.615Z,7.55
2022-10-13T09:25:47.415Z,6.90
2022-10-13T09:28:26.978Z,6.82
2022-10-13T09:31:04.659Z,6.20
2022-10-13T09:33:36.166Z,5.82
2022-10-13T09:36:03.188Z,5.70
2022-10-13T09:38:29.778Z,5.70
2022-10-13T09:41:09.324Z,5.45
2022-10-13T09:44:00.203Z,5.75
2022-10-13T09:46:34.193Z,5.68
2022-10-13T09:49:06.850Z,6.07
2022-10-13T09:51:37.746Z,5.97
2022-10-13T09:54:36.882Z,6.07
2022-10-13T09:57:11.647Z,7.00
2022-10-13T09:59:45.979Z,6.53
2022-10-13T10:02:34.561Z,6.70
2022-10-13T10:05:07.604Z,7.30
2022-10-13T10:07:34.339Z,7.70
2022-10-13T10:10:05.522Z,8.43
2022-10-13T10:12:36.968Z,8.00
2022-10-13T10:15:26.122Z,7.05
2022-10-13T10:17:59.933Z,6.40
2022-10-13T10:20:55.215Z,6.82
2022-10-13T10:23:26.166Z,6.53
2022-10-13T10:26:00.767Z,6.47
2022-10-13T10:28:33.757Z,6.47
2022-10-13T10:31:24.905Z,6.35
2022-10-13T10:34:01.642Z,6.00
2022-10-13T10:36:53.234Z,6.35
2022-10-13T10:39:39.222Z,6.32
2022-10-13T10:42:47.289Z,6.57
2022-10-13T10:45:20.803Z,8.13
2022-10-13T10:47:51.402Z,7.35
2022-10-13T10:50:21.980Z,7.38
2022-10-13T10:53:02.910Z,7.55
2022-10-13T10:55:39.983Z,7.70
2022-10-13T10:58:12.926Z,7.30
2022-10-13T11:01:10.696Z,7.50
2022-10-13T11:04:10.341Z,8.88
2022-10-13T11:06:38.515Z,7.03
2022-10-13T11:09:06.121Z,6.63
2022-10-13T11:11:40.531Z,6.15
2022-10-13T11:14:11.830Z,7.10
2022-10-13T11:17:03.519Z,6.30
2022-10-13T11:19:32.036Z,6.38
2022-10-13T11:21:58.530Z,7.43
2022-10-13T11:24:34.159Z,6.82
2022-10-13T11:27:15.933Z,7.20
2022-10-13T11:29:54.929Z,6.65
2022-10-13T11:32:27.590Z,6.65
2022-10-13T11:35:10.656Z,6.68
2022-10-13T11:37:55.808Z,7.10
2022-10-13T11:40:35.349Z,5.95
2022-10-13T11:43:46.319Z,6.15
2022-10-13T11:46:32.229Z,6.75
2022-10-13T11:50:09.971Z,6.50
2022-10-13T11:52:44.315Z,5.90
2022-10-13T11:55:34.428Z,5.82
2022-10-13T11:58:23.105Z,6.07
2022-10-13T12:00:56.691Z,6.53
2022-10-13T12:03:32.376Z,6.40
2022-10-13T12:06:26.540Z,8.18
2022-10-13T12:08:53.111Z,10.02
2022-10-13T12:11:35.554Z,9.95
2022-10-13T12:14:04.570Z,8.38
2022-10-13T12:16:31.242Z,7.53
2022-10-13T12:19:09.725Z,7.38
2022-10-13T12:21:52.210Z,6.53
2022-10-13T12:24:21.549Z,6.20
2022-10-13T12:26:48.114Z,5.70
2022-10-13T12:29:15.694Z,5.68
2022-10-13T12:31:45.328Z,6.43
2022-10-13T12:34:28.155Z,5.47
2022-10-13T12:37:24.821Z,5.40
2022-10-13T12:39:51.921Z,5.20
2022-10-13T12:42:19.242Z,5.15
2022-10-13T12:44:46.405Z,5.80
2022-10-13T12:47:51.277Z,6.20
2022-10-13T12:50:30.204Z,4.97
2022-10-13T12:53:08.684Z,5.03
2022-10-13T12:56:01.965Z,5.10
2022-10-13T12:58:31.557Z,5.82
2022-10-13T13:01:13.130Z,5.60
2022-10-13T13:03:42.269Z,5.65
2022-10-13T13:06:14.662Z,5.55
2022-10-13T13:08:43.221Z,5.32
2022-10-13T13:11:32.879Z,5.75
2022-10-13T13:14:31.956Z,6.10
2022-10-13T13:17:17.560Z,5.57
2022-10-13T13:19:55.745Z,6.00
2022-10-13T13:22:22.844Z,6.38
2022-10-13T13:24:51.383Z,6.00
2022-10-13T13:27:25.409Z,6.32
2022-10-13T13:29:54.261Z,6.40
2022-10-13T13:32:23.289Z,7.43
2022-10-13T13:34:49.877Z,10.38
2022-10-13T13:37:24.083Z,13.48
2022-10-13T13:39:51.252Z,14.60
2022-10-13T13:42:17.982Z,10.55
2022-10-13T13:44:48.015Z,8.13
2022-10-13T13:47:22.767Z,9.50
2022-10-13T13:49:51.531Z,10.27
2022-10-13T13:52:18.350Z,9.60
2022-10-13T13:54:45.839Z,15.00
2022-10-13T13:57:13.776Z,9.73
2022-10-13T13:59:41.305Z,10.32
2022-10-13T14:02:13.570Z,8.80
2022-10-13T14:04:40.655Z,8.50
2022-10-13T14:07:07.260Z,7.25
2022-10-13T14:09:33.862Z,9.55
2022-10-13T14:12:00.449Z,6.47
2022-10-13T14:14:27.377Z,6.45
2022-10-13T14:16:53.929Z,6.10
2022-10-13T14:19:20.516Z,6.18
2022-10-13T14:21:47.293Z,5.72
2022-10-13T14:24:18.280Z,4.90
2022-10-13T14:26:44.857Z,4.70
2022-10-13T14:29:11.486Z,4.60
2022-10-13T14:31:38.038Z,4.82
2022-10-13T14:34:04.602Z,5.03
2022-10-13T14:36:32.550Z,4.75
2022-10-13T14:38:59.182Z,4.38
2022-10-13T14:41:26.249Z,5.50
2022-10-13T14:43:56.801Z,5.13
2022-10-13T14:46:24.309Z,5.45
2022-10-13T14:48:51.011Z,5.35
2022-10-13T14:51:17.705Z,5.35
2022-10-13T14:53:45.452Z,5.55
2022-10-13T14:56:24.870Z,5.78
2022-10-13T14:58:53.495Z,6.38
2022-10-13T15:01:20.603Z,6.47
2022-10-13T15:03:47.814Z,6.70
2022-10-13T15:06:16.325Z,6.38
2022-10-13T15:08:43.711Z,6.45
2022-10-13T15:11:11.327Z,7.70
2022-10-13T15:13:38.851Z,7.93
2022-10-13T15:16:07.066Z,7.80
2022-10-13T15:18:36.089Z,8.38
2022-10-13T15:21:03.019Z,8.07
2022-10-13T15:23:29.638Z,8.30
2022-10-13T15:25:59.111Z,8.40
2022-10-13T15:28:28.653Z,8.82
2022-10-13T15:30:55.783Z,9.55
2022-10-13T15:33:22.769Z,9.65
2022-10-13T15:35:51.338Z,9.35
2022-10-13T15:38:19.297Z,9.82
2022-10-13T15:40:46.323Z,9.82
2022-10-13T15:43:13.479Z,10.55
2022-10-13T15:45:40.329Z,9.98
2022-10-13T15:48:08.055Z,10.60
2022-10-13T15:50:34.734Z,10.98
2022-10-13T15:53:01.342Z,10.38
2022-10-13T15:55:28.721Z,10.07
2022-10-13T15:57:55.428Z,9.52
2022-10-13T16:00:22.108Z,9.45
2022-10-13T16:02:50.856Z,9.48
2022-10-13T16:05:18.877Z,9.77
2022-10-13T16:07:45.814Z,9.88
2022-10-13T16:10:14.122Z,10.65
2022-10-13T16:12:45.454Z,10.13
2022-10-13T16:15:15.103Z,12.35
2022-10-13T16:17:41.855Z,12.80
2022-10-13T16:20:10.682Z,13.88
2022-10-13T16:22:37.256Z,12.20
2022-10-13T16:25:05.371Z,10.93
2022-10-13T16:27:32.313Z,10.85
2022-10-13T16:29:58.921Z,10.30
2022-10-13T16:32:25.487Z,10.55
2022-10-13T16:34:52.697Z,10.32
2022-10-13T16:37:20.109Z,10.73
2022-10-13T16:39:51.396Z,10.30
2022-10-13T16:42:18.685Z,11.27
2022-10-13T16:44:45.245Z,11.50
2022-10-13T16:47:17.322Z,13.23
2022-10-13T16:49:44.898Z,12.73
2022-10-13T16:52:12.307Z,12.45
2022-10-13T16:54:38.911Z,12.90
2022-10-13T16:57:05.495Z,12.60
2022-10-13T16:59:32.113Z,12.52
2022-10-13T17:01:59.340Z,11.60
2022-10-13T17:04:26.050Z,12.18
2022-10-13T17:06:52.694Z,12.07
2022-10-13T17:09:19.295Z,12.23
2022-10-13T17:11:46.480Z,12.73
2022-10-13T17:14:13.169Z,13.05
2022-10-13T17:16:40.074Z,13.77
2022-10-13T17:19:07.275Z,13.23
2022-10-13T17:21:36.174Z,13.15
2022-10-13T17:24:04.829Z,12.77
2022-10-13T17:26:33.160Z,13.75
2022-10-13T17:28:59.794Z,13.50
2022-10-13T17:31:26.429Z,13.88
2022-10-13T17:33:53.358Z,13.68
2022-10-13T17:36:24.131Z,14.65
2022-10-13T17:38:52.197Z,14.93
2022-10-13T17:41:19.386Z,14.70
2022-10-13T17:43:50.853Z,14.68
2022-10-13T17:49:07.187Z,15.30
2022-10-13T17:51:33.958Z,15.93
2022-10-13T17:54:00.767Z,16.38
2022-10-13T17:56:27.846Z,15.13
2022-10-13T17:58:54.906Z,16.13
2022-10-13T18:01:24.497Z,10.70
2022-10-13T18:03:57.458Z,8.55
2022-10-13T18:06:37.973Z,6.32
2022-10-13T18:09:11.770Z,6.22
2022-10-13T18:11:39.190Z,6.78
2022-10-13T18:14:06.757Z,7.40
2022-10-13T18:16:33.944Z,6.22
2022-10-13T18:19:00.588Z,6.40
2022-10-13T18:21:27.676Z,7.63
2022-10-13T18:23:55.825Z,8.27
2022-10-13T18:26:23.181Z,7.45
2022-10-13T18:28:50.951Z,7.45
2022-10-13T18:31:23.450Z,6.60
2022-10-13T18:33:59.221Z,9.55
2022-10-13T18:36:30.837Z,9.50
2022-10-13T18:39:17.955Z,8.57
2022-10-13T18:41:47.217Z,10.00
2022-10-13T18:44:13.889Z,11.02
2022-10-13T18:46:41.268Z,12.73
2022-10-13T18:49:10.585Z,8.60
2022-10-13T18:51:39.165Z,9.57
2022-10-13T18:54:06.049Z,7.93
2022-10-13T18:56:34.078Z,7.93
2022-10-13T18:59:01.809Z,8.68
2022-10-13T19:01:33.902Z,8.55
2022-10-13T19:04:00.729Z,8.30
2022-10-13T19:06:30.405Z,8.88
2022-10-13T19:09:03.556Z,9.02
2022-10-13T19:11:31.567Z,8.95
2022-10-13T19:13:59.166Z,8.57
2022-10-13T19:16:28.107Z,9.18
2022-10-13T19:18:54.916Z,8.38
2022-10-13T19:21:22.563Z,8.65
2022-10-13T19:23:50.243Z,10.05
2022-10-13T19:26:25.099Z,8.45
2022-10-13T19:29:00.355Z,9.98
2022-10-13T19:31:29.637Z,10.00
2022-10-13T19:33:56.659Z,13.95
2022-10-13T19:36:33.599Z,11.57
2022-10-13T19:39:01.932Z,15.18
2022-10-13T19:41:30.779Z,12.70
2022-10-13T19:43:57.889Z,11.30
2022-10-13T19:46:33.159Z,10.10
2022-10-13T19:48:59.763Z,9.65
2022-10-13T19:51:26.366Z,9.25
2022-10-13T19:53:52.957Z,9.70
2022-10-13T19:56:25.741Z,10.05
2022-10-13T19:58:53.099Z,10.02
2022-10-13T20:01:21.916Z,10.93
2022-10-13T20:03:48.858Z,11.90
2022-10-13T20:06:16.474Z,13.38
2022-10-13T20:08:43.220Z,12.27
2022-10-13T20:11:12.020Z,12.77
2022-10-13T20:13:38.836Z,11.90
2022-10-13T20:16:08.267Z,11.90
2022-10-13T20:18:35.772Z,12.43
2022-10-13T20:21:06.913Z,13.25
2022-10-13T20:23:33.872Z,13.10
2022-10-13T20:26:05.327Z,13.25
2022-10-13T20:28:39.236Z,13.23
2022-10-13T20:31:09.138Z,13.65
2022-10-13T20:33:36.290Z,12.60
2022-10-13T20:36:06.621Z,13.68
2022-10-13T20:38:38.046Z,12.40
2022-10-13T20:41:05.523Z,12.93
2022-10-13T20:43:32.102Z,13.35
2022-10-13T20:46:00.991Z,12.45
2022-10-13T20:48:51.061Z,12.70
2022-10-13T20:51:20.319Z,13.07
2022-10-13T20:53:48.594Z,12.00
2022-10-13T20:56:20.594Z,11.60
2022-10-13T20:58:47.171Z,10.88
2022-10-13T21:01:14.251Z,11.45
2022-10-13T21:03:41.137Z,11.85
2022-10-13T21:06:10.679Z,11.07
2022-10-13T21:08:37.601Z,12.18
2022-10-13T21:11:09.533Z,11.55
2022-10-13T21:13:37.118Z,12.52
2022-10-13T21:16:09.304Z,12.65
2022-10-13T21:18:35.926Z,12.48
2022-10-13T21:21:08.005Z,11.63
2022-10-13T21:23:36.164Z,11.52
2022-10-13T21:26:05.019Z,11.10
2022-10-13T21:28:32.211Z,11.13
2022-10-13T21:31:03.741Z,11.63
2022-10-13T21:33:33.403Z,10.85
2022-10-13T21:36:05.850Z,11.57
2022-10-13T21:38:32.604Z,11.55
2022-10-13T21:40:59.183Z,10.70
2022-10-13T21:43:25.802Z,10.40
2022-10-13T21:45:52.373Z,10.68
2022-10-13T21:48:18.926Z,9.95
2022-10-13T21:50:45.478Z,9.43
2022-10-13T21:53:12.162Z,10.18
2022-10-13T21:55:38.764Z,10.07
2022-10-13T21:58:05.620Z,9.50
2022-10-13T22:00:32.784Z,9.73
2022-10-13T22:02:59.413Z,9.80
2022-10-13T22:05:26.069Z,9.68
2022-10-13T22:07:56.935Z,8.70
2022-10-13T22:10:23.532Z,8.30
2022-10-13T22:12:51.127Z,8.50
2022-10-13T22:15:17.723Z,8.13
2022-10-13T22:17:44.307Z,7.43
2022-10-13T22:20:10.877Z,7.90
2022-10-13T22:22:37.784Z,7.32
2022-10-13T22:25:04.689Z,7.63
2022-10-13T22:27:32.093Z,7.93
2022-10-13T22:29:58.689Z,7.90
2022-10-13T22:32:25.266Z,7.70
2022-10-13T22:34:51.853Z,7.63
2022-10-13T22:37:18.591Z,6.95
2022-10-13T22:39:45.491Z,7.20
2022-10-13T22:42:12.056Z,7.03
2022-10-13T22:44:38.674Z,6.32
2022-10-13T22:47:05.294Z,5.95
2022-10-13T22:49:31.875Z,6.22
2022-10-13T22:51:58.468Z,5.30
2022-10-13T22:54:25.132Z,5.85
2022-10-13T22:56:52.379Z,5.65
2022-10-13T22:59:19.561Z,5.88
2022-10-13T23:01:46.156Z,6.22
2022-10-13T23:04:12.718Z,6.30
2022-10-13T23:06:39.371Z,5.68
2022-10-13T23:09:10.403Z,5.97
2022-10-13T23:11:37.726Z,5.75
2022-10-13T23:14:05.149Z,5.82
2022-10-13T23:16:32.056Z,5.70
2022-10-13T23:18:58.626Z,5.53
2022-10-13T23:21:27.905Z,5.53
2022-10-13T23:24:02.981Z,6.68
2022-10-13T23:26:29.968Z,5.72
2022-10-13T23:28:57.689Z,6.03
2022-10-13T23:31:25.434Z,6.03
2022-10-13T23:33:52.035Z,6.30
2022-10-13T23:36:23.609Z,5.68
2022-10-13T23:39:10.757Z,6.18
2022-10-13T23:41:38.078Z,6.75
2022-10-13T23:44:04.777Z,6.05
2022-10-13T23:46:31.414Z,6.43
2022-10-13T23:48:58.091Z,6.63
2022-10-13T23:51:25.630Z,5.30
2022-10-13T23:53:53.149Z,5.68
2022-10-13T23:56:20.196Z,6.10
2022-10-13T23:58:47.311Z,6.05
